createdAt,value
2018-08-30T00:01:11.715Z,59.20
2018-08-30T00:03:40.532Z,59.53
2018-08-30T00:06:09.103Z,58.97
2018-08-30T00:08:37.656Z,59.55
2018-08-30T00:11:06.271Z,59.18
2018-08-30T00:13:34.963Z,59.32
2018-08-30T00:16:03.511Z,59.31
2018-08-30T00:18:32.797Z,58.90
2018-08-30T00:21:01.944Z,58.87
2018-08-30T00:23:31.001Z,58.39
2018-08-30T00:26:00.279Z,58.55
2018-08-30T00:28:29.482Z,58.16
2018-08-30T00:30:58.413Z,57.74
2018-08-30T00:33:27.185Z,57.39
2018-08-30T00:35:55.885Z,57.70
2018-08-30T00:38:24.476Z,57.36
2018-08-30T00:40:53.367Z,57.07
2018-08-30T00:43:21.928Z,56.80
2018-08-30T00:45:50.628Z,57.16
2018-08-30T00:48:19.291Z,57.25
2018-08-30T00:50:47.859Z,57.33
2018-08-30T00:53:16.405Z,58.18
2018-08-30T00:55:45.223Z,57.31
2018-08-30T00:58:13.781Z,57.74
2018-08-30T01:00:42.371Z,58.10
2018-08-30T01:03:10.965Z,58.17
2018-08-30T01:05:39.707Z,58.24
2018-08-30T01:08:08.248Z,58.62
2018-08-30T01:10:36.858Z,58.18
2018-08-30T01:13:05.454Z,57.89
2018-08-30T01:15:34.040Z,58.19
2018-08-30T01:18:02.861Z,57.99
2018-08-30T01:20:31.419Z,58.48
2018-08-30T01:23:00.012Z,58.16
2018-08-30T01:25:28.903Z,58.19
2018-08-30T01:27:57.436Z,58.23
2018-08-30T01:30:26.037Z,57.49
2018-08-30T01:32:54.627Z,57.65
2018-08-30T01:35:23.192Z,57.19
2018-08-30T01:37:51.775Z,56.89
2018-08-30T01:40:20.521Z,56.77
2018-08-30T01:42:49.070Z,56.08
2018-08-30T01:45:17.627Z,55.86
2018-08-30T01:47:46.435Z,55.46
2018-08-30T01:50:15.107Z,55.76
2018-08-30T01:52:43.668Z,56.26
2018-08-30T01:55:12.618Z,56.07
2018-08-30T01:57:41.160Z,56.40
2018-08-30T02:00:09.759Z,56.96
2018-08-30T02:02:38.343Z,56.45
2018-08-30T02:05:07.009Z,57.74
2018-08-30T02:07:35.578Z,57.58
2018-08-30T02:10:04.676Z,58.07
2018-08-30T02:12:33.233Z,57.42
2018-08-30T02:15:01.812Z,57.75
2018-08-30T02:17:30.523Z,57.90
2018-08-30T02:19:59.063Z,57.29
2018-08-30T02:22:27.632Z,57.98
2018-08-30T02:24:56.275Z,58.01
2018-08-30T02:27:24.824Z,57.62
2018-08-30T02:29:53.423Z,58.04
2018-08-30T02:32:22.076Z,57.19
2018-08-30T02:34:50.632Z,57.59
2018-08-30T02:37:19.194Z,58.14
2018-08-30T02:39:47.899Z,57.56
2018-08-30T02:42:16.474Z,57.88
2018-08-30T02:44:45.019Z,58.13
2018-08-30T02:47:13.929Z,57.57
2018-08-30T02:49:42.504Z,58.26
2018-08-30T02:52:11.068Z,58.00
2018-08-30T02:54:39.996Z,58.58
2018-08-30T02:57:08.676Z,58.63
2018-08-30T02:59:37.250Z,58.07
2018-08-30T03:02:06.091Z,58.16
2018-08-30T03:04:34.668Z,58.48
2018-08-30T03:07:03.230Z,58.61
2018-08-30T03:09:32.063Z,59.21
2018-08-30T03:12:00.639Z,58.88
2018-08-30T03:14:29.222Z,58.60
2018-08-30T03:16:58.132Z,58.86
2018-08-30T03:19:26.699Z,59.33
2018-08-30T03:21:55.255Z,58.49
2018-08-30T03:24:23.827Z,59.16
2018-08-30T03:26:52.383Z,58.75
2018-08-30T03:29:20.928Z,59.07
2018-08-30T03:31:49.503Z,59.16
2018-08-30T03:34:18.048Z,58.94
2018-08-30T03:36:46.605Z,59.56
2018-08-30T03:39:15.259Z,59.36
2018-08-30T03:41:43.828Z,60.34
2018-08-30T03:44:12.443Z,60.03
2018-08-30T03:46:41.100Z,60.27
2018-08-30T03:49:09.648Z,60.06
2018-08-30T03:51:38.196Z,60.21
2018-08-30T03:54:06.912Z,60.40
2018-08-30T03:56:35.471Z,60.17
2018-08-30T03:59:04.024Z,60.12
2018-08-30T04:01:32.697Z,59.56
2018-08-30T04:04:01.239Z,59.84
2018-08-30T04:06:29.787Z,59.19
2018-08-30T04:08:58.367Z,59.19
2018-08-30T04:11:27.115Z,59.60
2018-08-30T04:13:55.667Z,59.12
2018-08-30T04:16:24.623Z,59.53
2018-08-30T04:18:59.155Z,58.76
2018-08-30T04:21:27.771Z,58.85
2018-08-30T04:23:56.567Z,58.72
2018-08-30T04:26:25.202Z,58.87
2018-08-30T04:28:53.767Z,58.57
2018-08-30T04:31:22.303Z,58.30
2018-08-30T04:33:50.948Z,58.35
2018-08-30T04:36:19.587Z,58.70
2018-08-30T04:38:48.167Z,58.00
2018-08-30T04:41:16.707Z,57.79
2018-08-30T04:43:45.275Z,58.38
2018-08-30T04:46:13.820Z,57.41
2018-08-30T04:48:42.563Z,57.60
2018-08-30T04:51:11.163Z,57.23
2018-08-30T04:53:39.739Z,57.90
2018-08-30T04:56:08.293Z,57.74
2018-08-30T04:58:36.883Z,57.15
2018-08-30T05:01:05.561Z,57.37
2018-08-30T05:03:34.118Z,56.66
2018-08-30T05:06:02.867Z,57.18
2018-08-30T05:08:31.423Z,57.18
2018-08-30T05:11:00.036Z,56.84
2018-08-30T05:13:28.991Z,56.85
2018-08-30T05:15:57.551Z,57.04
2018-08-30T05:18:26.115Z,57.15
2018-08-30T05:20:55.051Z,57.45
2018-08-30T05:23:23.589Z,57.24
2018-08-30T05:25:52.132Z,56.53
2018-08-30T05:31:26.355Z,57.84
2018-08-30T05:33:55.047Z,58.45
2018-08-30T05:36:23.599Z,58.19
2018-08-30T05:38:52.214Z,58.37
2018-08-30T05:41:20.935Z,58.35
2018-08-30T05:43:49.494Z,58.55
2018-08-30T05:46:18.051Z,58.63
2018-08-30T05:48:46.970Z,58.96
2018-08-30T05:51:15.516Z,58.53
2018-08-30T05:53:44.064Z,58.48
2018-08-30T05:56:12.804Z,58.79
2018-08-30T05:58:41.371Z,58.55
2018-08-30T06:01:09.992Z,58.96
2018-08-30T06:03:38.572Z,58.86
2018-08-30T06:06:07.196Z,58.64
2018-08-30T06:08:35.743Z,58.57
2018-08-30T06:11:04.737Z,59.74
2018-08-30T06:13:33.287Z,60.34
2018-08-30T06:16:01.863Z,61.92
2018-08-30T06:18:30.535Z,63.17
2018-08-30T06:20:59.091Z,62.54
2018-08-30T06:23:27.664Z,63.44
2018-08-30T06:25:56.455Z,64.61
2018-08-30T06:28:25.024Z,64.36
2018-08-30T06:30:53.588Z,64.59
2018-08-30T06:33:22.183Z,64.46
2018-08-30T06:35:50.747Z,64.47
2018-08-30T06:38:19.347Z,65.05
2018-08-30T06:40:48.247Z,65.04
2018-08-30T06:43:16.807Z,65.96
2018-08-30T06:45:45.355Z,66.62
2018-08-30T06:48:14.200Z,66.94
2018-08-30T06:50:42.752Z,67.08
2018-08-30T06:53:11.327Z,66.72
2018-08-30T06:55:40.035Z,67.17
2018-08-30T06:58:08.588Z,67.09
2018-08-30T07:00:37.172Z,66.99
2018-08-30T07:03:06.375Z,66.83
2018-08-30T07:05:34.955Z,66.46
2018-08-30T07:08:03.545Z,66.22
2018-08-30T07:10:32.149Z,66.32
2018-08-30T07:13:00.715Z,66.19
2018-08-30T07:15:29.365Z,65.77
2018-08-30T07:17:57.988Z,65.96
2018-08-30T07:20:26.548Z,64.59
2018-08-30T07:22:55.110Z,61.03
2018-08-30T07:25:23.779Z,58.76
2018-08-30T07:27:52.360Z,57.97
2018-08-30T07:30:20.915Z,59.13
2018-08-30T07:32:49.579Z,59.54
2018-08-30T07:35:18.128Z,56.56
2018-08-30T07:37:46.675Z,56.92
2018-08-30T07:40:15.395Z,58.25
2018-08-30T07:42:43.948Z,58.01
2018-08-30T07:45:12.482Z,56.93
2018-08-30T07:47:41.062Z,58.01
2018-08-30T07:50:09.631Z,58.39
2018-08-30T07:52:38.168Z,57.94
2018-08-30T07:55:07.027Z,58.03
2018-08-30T07:57:35.686Z,58.13
2018-08-30T08:00:04.514Z,57.79
2018-08-30T08:02:33.131Z,58.23
2018-08-30T08:05:01.676Z,57.51
2018-08-30T08:07:30.288Z,57.45
2018-08-30T08:09:59.654Z,58.75
2018-08-30T08:12:28.213Z,57.59
2018-08-30T08:14:56.759Z,58.11
2018-08-30T08:17:25.360Z,58.30
2018-08-30T08:19:54.011Z,57.29
2018-08-30T08:22:22.623Z,57.77
2018-08-30T08:24:51.351Z,57.30
2018-08-30T08:27:19.873Z,56.95
2018-08-30T08:29:48.419Z,58.09
2018-08-30T08:32:17.124Z,57.47
2018-08-30T08:34:45.663Z,57.09
2018-08-30T08:37:14.323Z,57.48
2018-08-30T08:39:42.992Z,56.36
2018-08-30T08:42:11.551Z,57.10
2018-08-30T08:44:40.111Z,56.77
2018-08-30T08:47:09.039Z,57.55
2018-08-30T08:49:38.320Z,57.03
2018-08-30T08:52:06.919Z,56.81
2018-08-30T08:54:35.623Z,56.63
2018-08-30T08:57:04.197Z,57.10
2018-08-30T08:59:32.739Z,56.56
2018-08-30T09:02:01.339Z,55.88
2018-08-30T09:04:29.891Z,53.84
2018-08-30T09:06:58.481Z,50.19
2018-08-30T09:09:27.071Z,48.69
2018-08-30T09:11:55.616Z,45.55
2018-08-30T09:14:24.182Z,43.65
2018-08-30T09:16:53.035Z,44.68
2018-08-30T09:19:21.591Z,44.91
2018-08-30T09:21:50.152Z,44.79
2018-08-30T09:24:19.379Z,43.13
2018-08-30T09:26:47.997Z,42.94
2018-08-30T09:29:16.516Z,44.43
2018-08-30T09:31:45.112Z,45.14
2018-08-30T09:34:13.693Z,42.85
2018-08-30T09:36:42.312Z,42.12
2018-08-30T09:39:10.996Z,41.71
2018-08-30T09:41:39.579Z,41.40
2018-08-30T09:44:08.173Z,38.97
2018-08-30T09:46:37.184Z,38.73
2018-08-30T09:49:06.223Z,39.24
2018-08-30T09:51:34.827Z,40.34
2018-08-30T09:54:03.500Z,41.56
2018-08-30T09:56:32.060Z,42.08
2018-08-30T09:59:00.608Z,42.81
2018-08-30T10:01:34.607Z,42.76
2018-08-30T10:04:03.176Z,41.49
2018-08-30T10:06:31.761Z,41.71
2018-08-30T10:09:01.107Z,41.56
2018-08-30T10:11:29.674Z,41.68
2018-08-30T10:13:58.232Z,42.14
2018-08-30T10:16:27.163Z,42.56
2018-08-30T10:18:55.761Z,42.37
2018-08-30T10:21:24.361Z,43.18
2018-08-30T10:23:53.075Z,43.29
2018-08-30T10:26:21.660Z,43.12
2018-08-30T10:28:50.220Z,42.80
2018-08-30T10:31:18.951Z,41.75
2018-08-30T10:33:47.479Z,42.12
2018-08-30T10:36:16.032Z,42.13
2018-08-30T10:38:44.716Z,41.71
2018-08-30T10:41:13.275Z,42.68
2018-08-30T10:43:41.827Z,42.64
2018-08-30T10:46:10.491Z,42.48
2018-08-30T10:48:39.078Z,39.99
2018-08-30T10:51:07.675Z,40.79
2018-08-30T10:53:36.622Z,40.96
2018-08-30T10:56:05.242Z,41.75
2018-08-30T10:58:33.876Z,42.04
2018-08-30T11:01:02.555Z,39.82
2018-08-30T11:03:31.231Z,38.53
2018-08-30T11:05:59.804Z,38.34
2018-08-30T11:08:28.760Z,38.38
2018-08-30T11:10:57.296Z,38.08
2018-08-30T11:13:25.924Z,38.50
2018-08-30T11:15:54.531Z,38.11
2018-08-30T11:18:23.114Z,38.55
2018-08-30T11:20:51.683Z,39.87
2018-08-30T11:23:20.685Z,38.62
2018-08-30T11:25:49.235Z,38.37
2018-08-30T11:28:17.780Z,39.71
2018-08-30T11:30:46.451Z,41.65
2018-08-30T11:33:15.017Z,40.95
2018-08-30T11:35:43.580Z,40.26
2018-08-30T11:38:12.224Z,39.42
2018-08-30T11:40:40.811Z,39.32
2018-08-30T11:43:09.409Z,39.01
2018-08-30T11:45:38.198Z,39.31
2018-08-30T11:48:06.828Z,38.29
2018-08-30T11:50:35.379Z,37.77
2018-08-30T11:53:04.045Z,37.71
2018-08-30T11:55:32.611Z,38.00
2018-08-30T11:58:01.164Z,37.65
2018-08-30T12:00:29.975Z,37.38
2018-08-30T12:02:59.407Z,36.64
2018-08-30T12:05:27.972Z,36.54
2018-08-30T12:07:57.793Z,37.38
2018-08-30T12:10:26.729Z,37.25
2018-08-30T12:12:55.259Z,37.49
2018-08-30T12:15:23.906Z,37.10
2018-08-30T12:17:52.496Z,37.28
2018-08-30T12:20:21.075Z,37.44
2018-08-30T12:22:49.781Z,37.79
2018-08-30T12:25:18.333Z,36.89
2018-08-30T12:27:46.896Z,36.24
2018-08-30T12:30:15.735Z,36.03
2018-08-30T12:32:44.370Z,35.82
2018-08-30T12:35:12.979Z,35.68
2018-08-30T12:37:41.573Z,35.56
2018-08-30T12:40:10.240Z,36.01
2018-08-30T12:42:39.026Z,35.83
2018-08-30T12:45:08.011Z,35.43
2018-08-30T12:47:36.839Z,35.49
2018-08-30T12:50:06.036Z,35.90
2018-08-30T12:52:34.727Z,36.52
2018-08-30T12:55:03.344Z,35.87
2018-08-30T12:57:31.829Z,36.11
2018-08-30T13:00:00.485Z,35.95
2018-08-30T13:02:29.086Z,35.46
2018-08-30T13:04:57.734Z,34.82
2018-08-30T13:07:26.346Z,34.71
2018-08-30T13:09:55.472Z,34.52
2018-08-30T13:12:24.123Z,34.45
2018-08-30T13:14:52.753Z,34.35
2018-08-30T13:17:21.240Z,35.08
2018-08-30T13:19:50.054Z,35.32
2018-08-30T13:22:18.617Z,35.01
2018-08-30T13:24:47.163Z,34.99
2018-08-30T13:27:15.850Z,34.29
2018-08-30T13:29:44.595Z,35.49
2018-08-30T13:32:13.348Z,36.09
2018-08-30T13:34:41.903Z,35.56
2018-08-30T13:37:10.531Z,36.38
2018-08-30T13:39:39.276Z,36.29
2018-08-30T13:42:07.895Z,36.48
2018-08-30T13:44:36.549Z,36.83
2018-08-30T13:47:05.351Z,36.28
2018-08-30T13:49:33.587Z,36.67
2018-08-30T13:52:02.518Z,36.11
2018-08-30T13:54:31.092Z,36.57
2018-08-30T13:56:59.680Z,36.85
2018-08-30T13:59:28.737Z,36.51
2018-08-30T14:01:57.082Z,37.65
2018-08-30T14:04:25.658Z,37.39
2018-08-30T14:06:54.299Z,36.72
2018-08-30T14:09:22.906Z,37.32
2018-08-30T14:11:51.605Z,37.70
2018-08-30T14:14:20.308Z,37.47
2018-08-30T14:16:48.702Z,37.46
2018-08-30T14:19:17.819Z,37.04
2018-08-30T14:21:46.634Z,36.34
2018-08-30T14:24:15.222Z,36.38
2018-08-30T14:26:43.776Z,35.85
2018-08-30T14:29:12.452Z,36.37
2018-08-30T14:31:41.003Z,36.60
2018-08-30T14:34:09.672Z,35.96
2018-08-30T14:36:38.372Z,36.06
2018-08-30T14:39:08.623Z,36.50
2018-08-30T14:41:37.218Z,36.28
2018-08-30T14:44:05.912Z,36.90
2018-08-30T14:46:34.886Z,37.21
2018-08-30T14:49:03.944Z,37.02
2018-08-30T14:51:32.584Z,37.10
2018-08-30T14:54:01.351Z,36.99
2018-08-30T14:56:29.826Z,36.52
2018-08-30T14:58:58.412Z,36.41
2018-08-30T15:01:26.974Z,36.71
2018-08-30T15:03:55.531Z,36.52
2018-08-30T15:06:24.126Z,37.16
2018-08-30T15:08:52.679Z,36.92
2018-08-30T15:11:21.279Z,37.20
2018-08-30T15:13:49.823Z,37.40
2018-08-30T15:16:18.433Z,37.35
2018-08-30T15:18:47.134Z,37.50
2018-08-30T15:21:15.833Z,39.60
2018-08-30T15:23:44.511Z,40.24
2018-08-30T15:26:13.079Z,41.09
2018-08-30T15:28:41.704Z,41.65
2018-08-30T15:31:10.294Z,42.44
2018-08-30T15:33:39.110Z,41.74
2018-08-30T15:36:07.772Z,41.26
2018-08-30T15:38:36.338Z,42.10
2018-08-30T15:41:04.984Z,42.42
2018-08-30T15:43:33.594Z,42.04
2018-08-30T15:46:02.174Z,42.45
2018-08-30T15:48:30.744Z,42.58
2018-08-30T15:50:59.443Z,42.54
2018-08-30T15:53:28.008Z,42.65
2018-08-30T15:55:56.576Z,43.29
2018-08-30T15:58:25.177Z,42.92
2018-08-30T16:00:53.849Z,43.69
2018-08-30T16:03:22.412Z,43.85
2018-08-30T16:05:51.096Z,44.07
2018-08-30T16:08:19.672Z,44.16
2018-08-30T16:10:48.255Z,44.39
2018-08-30T16:13:17.293Z,44.75
2018-08-30T16:15:45.791Z,44.31
2018-08-30T16:18:14.376Z,44.82
2018-08-30T16:20:43.108Z,44.46
2018-08-30T16:23:33.432Z,44.54
2018-08-30T16:26:02.135Z,44.56
2018-08-30T16:28:31.834Z,44.92
2018-08-30T16:31:00.607Z,45.05
2018-08-30T16:33:29.440Z,45.39
2018-08-30T16:35:58.067Z,45.42
2018-08-30T16:38:26.806Z,45.99
2018-08-30T16:40:55.479Z,45.93
2018-08-30T16:43:24.036Z,46.46
2018-08-30T16:45:54.247Z,46.24
2018-08-30T16:48:22.874Z,46.31
2018-08-30T16:50:51.752Z,46.48
2018-08-30T16:53:20.475Z,46.44
2018-08-30T16:55:49.235Z,46.38
2018-08-30T16:58:17.790Z,46.31
2018-08-30T17:00:46.573Z,45.95
2018-08-30T17:03:15.556Z,46.18
2018-08-30T17:05:44.251Z,46.27
2018-08-30T17:08:12.844Z,46.54
2018-08-30T17:10:41.543Z,46.28
2018-08-30T17:13:10.127Z,46.79
2018-08-30T17:15:38.774Z,46.45
2018-08-30T17:18:07.880Z,46.67
2018-08-30T17:20:40.583Z,46.87
2018-08-30T17:23:09.480Z,46.83
2018-08-30T17:25:38.035Z,47.80
2018-08-30T17:28:06.639Z,47.68
2018-08-30T17:30:35.683Z,48.35
2018-08-30T17:33:04.263Z,48.33
2018-08-30T17:35:32.820Z,48.73
2018-08-30T17:38:01.477Z,48.65
2018-08-30T17:40:30.084Z,48.88
2018-08-30T17:42:58.658Z,49.32
2018-08-30T17:45:27.433Z,49.21
2018-08-30T17:47:55.976Z,49.25
2018-08-30T17:50:24.548Z,49.13
2018-08-30T17:52:53.231Z,49.34
2018-08-30T17:55:21.915Z,49.70
2018-08-30T17:57:50.480Z,49.50
2018-08-30T18:00:19.112Z,49.27
2018-08-30T18:02:48.204Z,49.53
2018-08-30T18:05:17.062Z,49.59
2018-08-30T18:07:45.807Z,49.64
2018-08-30T18:10:14.395Z,49.85
2018-08-30T18:12:42.942Z,49.60
2018-08-30T18:15:13.820Z,49.81
2018-08-30T18:17:42.525Z,50.05
2018-08-30T18:20:11.308Z,50.39
2018-08-30T18:22:39.976Z,49.80
2018-08-30T18:25:13.417Z,50.13
2018-08-30T18:27:44.217Z,50.47
2018-08-30T18:30:15.372Z,49.88
2018-08-30T18:32:47.105Z,50.45
2018-08-30T18:35:17.335Z,50.56
2018-08-30T18:37:49.823Z,50.03
2018-08-30T18:40:18.511Z,49.96
2018-08-30T18:42:47.096Z,50.32
2018-08-30T18:45:15.688Z,50.34
2018-08-30T18:47:44.236Z,50.40
2018-08-30T18:50:12.779Z,51.08
2018-08-30T18:52:41.811Z,51.12
2018-08-30T18:55:10.375Z,50.83
2018-08-30T18:57:38.931Z,51.26
2018-08-30T19:00:08.635Z,51.67
2018-08-30T19:02:37.252Z,51.52
2018-08-30T19:05:05.827Z,51.79
2018-08-30T19:07:34.427Z,52.01
2018-08-30T19:10:03.027Z,51.90
2018-08-30T19:12:31.712Z,52.31
2018-08-30T19:15:02.643Z,52.73
2018-08-30T19:17:36.500Z,52.78
2018-08-30T19:20:05.100Z,52.51
2018-08-30T19:22:33.670Z,52.90
2018-08-30T19:25:07.664Z,52.53
2018-08-30T19:27:36.265Z,53.32
2018-08-30T19:30:09.980Z,53.37
2018-08-30T19:32:38.536Z,52.74
2018-08-30T19:35:12.884Z,52.98
2018-08-30T19:37:42.019Z,53.52
2018-08-30T19:40:14.816Z,53.30
2018-08-30T19:42:43.652Z,53.74
2018-08-30T19:45:12.237Z,53.49
2018-08-30T19:47:40.904Z,53.80
2018-08-30T19:50:09.776Z,53.83
2018-08-30T19:52:39.294Z,54.12
2018-08-30T19:55:08.421Z,54.77
2018-08-30T19:57:37.144Z,54.57
2018-08-30T20:00:05.991Z,54.79
2018-08-30T20:02:34.785Z,54.83
2018-08-30T20:05:03.431Z,54.67
2018-08-30T20:07:32.124Z,54.62
2018-08-30T20:10:00.844Z,54.26
2018-08-30T20:12:29.594Z,54.45
2018-08-30T20:14:58.356Z,54.96
2018-08-30T20:17:26.955Z,55.25
2018-08-30T20:19:55.885Z,55.09
2018-08-30T20:22:24.515Z,55.11
2018-08-30T20:24:53.112Z,55.41
2018-08-30T20:27:21.707Z,55.42
2018-08-30T20:29:50.256Z,54.86
2018-08-30T20:32:18.924Z,55.13
2018-08-30T20:34:47.477Z,55.41
2018-08-30T20:37:16.034Z,55.33
2018-08-30T20:39:44.863Z,55.26
2018-08-30T20:42:13.909Z,55.58
2018-08-30T20:44:42.455Z,54.87
2018-08-30T20:47:11.044Z,55.18
2018-08-30T20:49:39.608Z,54.84
2018-08-30T20:52:08.683Z,54.58
2018-08-30T20:54:37.506Z,55.00
2018-08-30T20:57:06.224Z,54.32
2018-08-30T20:59:34.867Z,54.77
2018-08-30T21:02:03.716Z,54.87
2018-08-30T21:04:32.225Z,54.50
2018-08-30T21:07:00.801Z,54.57
2018-08-30T21:09:29.668Z,54.86
2018-08-30T21:11:58.228Z,54.60
2018-08-30T21:14:26.823Z,54.77
2018-08-30T21:16:55.744Z,54.48
2018-08-30T21:19:24.312Z,54.10
2018-08-30T21:21:53.068Z,53.79
2018-08-30T21:24:39.619Z,54.07
2018-08-30T21:27:08.699Z,54.15
2018-08-30T21:29:37.298Z,54.82
2018-08-30T21:32:06.072Z,54.95
2018-08-30T21:34:35.881Z,54.82
2018-08-30T21:37:04.471Z,55.08
2018-08-30T21:39:33.166Z,54.94
2018-08-30T21:42:01.732Z,54.90
2018-08-30T21:44:30.323Z,55.00
2018-08-30T21:46:58.879Z,55.00
2018-08-30T21:49:27.504Z,54.92
2018-08-30T21:51:56.159Z,55.01
2018-08-30T21:54:24.731Z,54.74
2018-08-30T21:56:53.484Z,54.71
2018-08-30T21:59:22.164Z,54.47
2018-08-30T22:01:50.719Z,54.24
2018-08-30T22:04:19.527Z,54.41
2018-08-30T22:06:48.206Z,54.16
2018-08-30T22:09:16.760Z,54.48
2018-08-30T22:11:45.495Z,54.88
2018-08-30T22:14:14.171Z,54.60
2018-08-30T22:16:42.719Z,54.69
2018-08-30T22:19:11.262Z,54.86
2018-08-30T22:21:39.959Z,54.26
2018-08-30T22:24:08.519Z,54.85
2018-08-30T22:26:37.307Z,54.93
2018-08-30T22:29:06.103Z,54.78
2018-08-30T22:31:34.672Z,55.09
2018-08-30T22:34:03.254Z,54.36
2018-08-30T22:36:31.928Z,54.52
2018-08-30T22:39:00.507Z,53.94
2018-08-30T22:41:29.087Z,53.82
2018-08-30T22:43:57.672Z,54.37
2018-08-30T22:46:26.242Z,53.76
2018-08-30T22:48:54.796Z,53.68
2018-08-30T22:51:23.495Z,53.44
2018-08-30T22:53:52.582Z,53.41
2018-08-30T22:56:21.762Z,53.38
2018-08-30T22:58:51.259Z,53.27
2018-08-30T23:01:20.397Z,53.35
2018-08-30T23:03:48.992Z,53.42
2018-08-30T23:06:17.693Z,52.83
2018-08-30T23:08:46.244Z,52.63
2018-08-30T23:11:14.800Z,52.22
2018-08-30T23:13:43.591Z,52.48
2018-08-30T23:16:12.231Z,52.44
2018-08-30T23:18:40.807Z,52.27
2018-08-30T23:21:09.427Z,52.70
2018-08-30T23:23:37.971Z,52.78
2018-08-30T23:26:06.592Z,52.74
2018-08-30T23:28:35.263Z,52.37
2018-08-30T23:31:03.824Z,52.56
2018-08-30T23:33:32.540Z,52.16
2018-08-30T23:36:01.136Z,52.80
2018-08-30T23:38:29.691Z,52.86
2018-08-30T23:40:58.251Z,53.06
2018-08-30T23:43:27.199Z,52.49
2018-08-30T23:45:55.776Z,53.18
2018-08-30T23:48:24.327Z,52.95
2018-08-30T23:50:53.339Z,52.66
2018-08-30T23:53:21.891Z,52.89
2018-08-30T23:55:50.467Z,53.14
2018-08-30T23:59:28.315Z,53.50
